createdAt,value
2022-08-07T00:00:18.705Z,64.81
2022-08-07T00:03:04.338Z,65.33
2022-08-07T00:05:32.547Z,64.89
2022-08-07T00:08:04.067Z,65.45
2022-08-07T00:10:31.710Z,65.37
2022-08-07T00:13:02.026Z,64.75
2022-08-07T00:15:38.633Z,64.65
2022-08-07T00:18:19.907Z,65.46
2022-08-07T00:20:49.616Z,64.78
2022-08-07T00:23:17.232Z,64.99
2022-08-07T00:25:45.987Z,64.99
2022-08-07T00:28:25.310Z,65.62
2022-08-07T00:31:04.274Z,64.86
2022-08-07T00:33:32.791Z,65.24
2022-08-07T00:36:00.371Z,64.38
2022-08-07T00:38:31.233Z,64.64
2022-08-07T00:40:59.736Z,64.41
2022-08-07T00:44:01.151Z,65.71
2022-08-07T00:46:14.722Z,64.40
2022-08-07T00:48:41.968Z,64.22
2022-08-07T00:51:10.500Z,64.37
2022-08-07T00:53:50.550Z,64.92
2022-08-07T00:56:23.050Z,64.91
2022-08-07T00:58:58.547Z,64.04
2022-08-07T01:01:25.808Z,64.00
2022-08-07T01:03:57.127Z,63.75
2022-08-07T01:06:29.321Z,64.17
2022-08-07T01:09:00.743Z,64.12
2022-08-07T01:12:23.371Z,64.36
2022-08-07T01:14:28.900Z,64.55
2022-08-07T01:16:57.717Z,64.19
2022-08-07T01:19:25.260Z,64.16
2022-08-07T01:21:53.504Z,64.36
2022-08-07T01:24:22.862Z,64.62
2022-08-07T01:26:51.908Z,64.31
2022-08-07T01:29:22.449Z,64.63
2022-08-07T01:31:51.408Z,64.53
2022-08-07T01:34:19.093Z,64.38
2022-08-07T01:36:52.785Z,63.66
2022-08-07T01:39:41.322Z,63.61
2022-08-07T01:42:39.543Z,63.72
2022-08-07T01:45:05.018Z,63.81
2022-08-07T01:48:29.674Z,64.60
2022-08-07T01:50:28.919Z,63.93
2022-08-07T01:52:58.519Z,64.17
2022-08-07T01:55:34.476Z,63.66
2022-08-07T01:58:29.343Z,63.95
2022-08-07T02:01:09.713Z,64.61
2022-08-07T02:03:48.630Z,64.18
2022-08-07T02:06:30.898Z,64.15
2022-08-07T02:09:03.609Z,64.66
2022-08-07T02:12:04.306Z,64.19
2022-08-07T02:14:36.325Z,64.33
2022-08-07T02:17:10.994Z,64.30
2022-08-07T02:20:04.452Z,64.64
2022-08-07T02:22:30.528Z,64.01
2022-08-07T02:24:58.858Z,64.41
2022-08-07T02:27:34.204Z,64.11
2022-08-07T02:30:07.444Z,63.74
2022-08-07T02:32:39.486Z,64.53
2022-08-07T02:36:28.206Z,63.49
2022-08-07T02:38:14.687Z,64.53
2022-08-07T02:40:44.484Z,64.07
2022-08-07T02:43:15.504Z,64.56
2022-08-07T02:45:59.236Z,64.29
2022-08-07T02:48:28.854Z,63.73
2022-08-07T02:50:57.195Z,64.99
2022-08-07T02:53:38.266Z,64.17
2022-08-07T02:56:17.327Z,64.24
2022-08-07T02:58:47.323Z,64.69
2022-08-07T03:01:19.002Z,64.74
2022-08-07T03:04:03.221Z,64.88
2022-08-07T03:06:34.940Z,65.58
2022-08-07T03:09:03.761Z,65.04
2022-08-07T03:11:38.556Z,65.85
2022-08-07T03:14:07.033Z,66.11
2022-08-07T03:16:38.355Z,66.74
2022-08-07T03:19:06.044Z,67.39
2022-08-07T03:21:33.472Z,68.33
2022-08-07T03:24:20.524Z,67.73
2022-08-07T03:26:58.871Z,67.37
2022-08-07T03:29:51.046Z,67.23
2022-08-07T03:32:22.917Z,65.97
2022-08-07T03:35:17.070Z,65.93
2022-08-07T03:37:46.495Z,65.82
2022-08-07T03:40:22.404Z,66.36
2022-08-07T03:42:51.639Z,66.46
2022-08-07T03:45:30.015Z,65.41
2022-08-07T03:47:58.684Z,65.64
2022-08-07T03:50:28.736Z,65.93
2022-08-07T03:52:59.077Z,65.78
2022-08-07T03:55:53.045Z,65.81
2022-08-07T03:59:07.381Z,65.60
2022-08-07T04:01:04.985Z,66.34
2022-08-07T04:03:49.615Z,66.42
2022-08-07T04:06:36.135Z,66.35
2022-08-07T04:09:05.679Z,65.48
2022-08-07T04:12:23.366Z,64.94
2022-08-07T04:14:38.086Z,63.77
2022-08-07T04:17:21.281Z,63.54
2022-08-07T04:19:52.308Z,63.78
2022-08-07T04:22:27.458Z,63.36
2022-08-07T04:24:58.089Z,62.71
2022-08-07T04:27:26.523Z,62.51
2022-08-07T04:30:01.215Z,62.37
2022-08-07T04:32:34.239Z,63.18
2022-08-07T04:35:07.234Z,63.12
2022-08-07T04:37:52.752Z,62.94
2022-08-07T04:40:26.588Z,63.27
2022-08-07T04:43:02.189Z,62.44
2022-08-07T04:45:57.718Z,62.48
2022-08-07T04:48:35.435Z,62.36
2022-08-07T04:51:16.257Z,62.50
2022-08-07T04:54:08.114Z,61.47
2022-08-07T04:58:15.618Z,62.06
2022-08-07T05:00:12.245Z,61.84
2022-08-07T05:02:45.742Z,61.79
2022-08-07T05:05:52.790Z,61.68
2022-08-07T05:09:00.169Z,62.17
2022-08-07T05:11:57.019Z,60.56
2022-08-07T05:14:55.527Z,61.14
2022-08-07T05:17:50.453Z,60.71
2022-08-07T05:20:09.867Z,60.99
2022-08-07T05:22:39.173Z,60.34
2022-08-07T05:25:11.577Z,60.84
2022-08-07T05:28:02.615Z,60.29
2022-08-07T05:30:43.331Z,60.03
2022-08-07T05:33:16.168Z,59.07
2022-08-07T05:35:45.913Z,59.43
2022-08-07T05:39:00.867Z,58.98
2022-08-07T05:41:11.944Z,58.93
2022-08-07T05:44:07.577Z,58.91
2022-08-07T05:46:31.709Z,59.33
2022-08-07T05:49:00.306Z,57.78
2022-08-07T05:51:31.604Z,58.83
2022-08-07T05:54:13.344Z,58.39
2022-08-07T05:56:51.484Z,57.45
2022-08-07T05:59:21.046Z,57.24
2022-08-07T06:01:49.532Z,56.94
2022-08-07T06:04:19.811Z,56.71
2022-08-07T06:06:47.641Z,57.10
2022-08-07T06:10:04.745Z,56.38
2022-08-07T06:12:11.324Z,55.84
2022-08-07T06:14:49.572Z,55.01
2022-08-07T06:17:19.278Z,55.77
2022-08-07T06:20:03.459Z,55.29
2022-08-07T06:22:38.357Z,55.59
2022-08-07T06:25:06.256Z,55.14
2022-08-07T06:28:00.566Z,55.51
2022-08-07T06:30:35.789Z,54.46
2022-08-07T06:33:09.777Z,54.73
2022-08-07T06:35:47.853Z,55.00
2022-08-07T06:38:30.387Z,55.05
2022-08-07T06:40:59.828Z,54.70
2022-08-07T06:43:39.383Z,54.27
2022-08-07T06:46:11.453Z,53.95
2022-08-07T06:48:41.811Z,53.87
2022-08-07T06:51:31.237Z,52.62
2022-08-07T06:55:29.492Z,53.37
2022-08-07T06:56:51.476Z,53.96
2022-08-07T07:00:12.030Z,53.28
2022-08-07T07:02:53.643Z,53.22
2022-08-07T07:05:08.907Z,51.93
2022-08-07T07:07:59.090Z,52.36
2022-08-07T07:10:33.413Z,52.83
2022-08-07T07:13:07.886Z,52.76
2022-08-07T07:15:44.455Z,52.30
2022-08-07T07:18:33.139Z,52.11
2022-08-07T07:21:13.530Z,53.37
2022-08-07T07:24:08.277Z,52.38
2022-08-07T07:26:37.926Z,52.50
2022-08-07T07:29:40.434Z,52.45
2022-08-07T07:32:03.057Z,52.57
2022-08-07T07:34:33.231Z,53.68
2022-08-07T07:37:14.472Z,52.80
2022-08-07T07:39:54.882Z,51.98
2022-08-07T07:42:32.559Z,52.74
2022-08-07T07:45:02.523Z,51.92
2022-08-07T07:47:30.387Z,52.50
2022-08-07T07:50:33.398Z,50.35
2022-08-07T07:53:13.678Z,51.06
2022-08-07T07:56:00.983Z,50.77
2022-08-07T07:58:36.885Z,50.99
2022-08-07T08:02:01.775Z,52.34
2022-08-07T08:04:09.487Z,51.59
2022-08-07T08:06:40.696Z,50.81
2022-08-07T08:09:22.774Z,50.15
2022-08-07T08:12:01.763Z,49.83
2022-08-07T08:14:31.827Z,49.24
2022-08-07T08:18:36.853Z,48.69
2022-08-07T08:20:19.556Z,49.20
2022-08-07T08:23:01.946Z,48.58
2022-08-07T08:25:52.089Z,49.79
2022-08-07T08:28:38.417Z,48.80
2022-08-07T08:31:15.826Z,47.59
2022-08-07T08:33:49.802Z,47.93
2022-08-07T08:36:31.972Z,47.61
2022-08-07T08:39:03.591Z,46.87
2022-08-07T08:41:57.311Z,45.90
2022-08-07T08:44:44.940Z,46.70
2022-08-07T08:47:27.510Z,45.66
2022-08-07T08:50:39.476Z,45.00
2022-08-07T08:53:22.560Z,45.91
2022-08-07T08:55:53.441Z,44.71
2022-08-07T08:58:35.069Z,44.39
2022-08-07T09:01:15.360Z,45.02
2022-08-07T09:04:01.840Z,44.79
2022-08-07T09:06:47.611Z,44.34
2022-08-07T09:09:56.490Z,41.68
2022-08-07T09:12:53.541Z,42.46
2022-08-07T09:16:25.844Z,42.24
2022-08-07T09:18:58.839Z,42.44
2022-08-07T09:21:58.254Z,42.47
2022-08-07T09:24:53.891Z,41.30
2022-08-07T09:27:19.714Z,43.19
2022-08-07T09:30:04.270Z,41.63
2022-08-07T09:32:47.302Z,40.58
2022-08-07T09:36:03.237Z,41.71
2022-08-07T09:39:11.538Z,41.27
2022-08-07T09:42:05.633Z,42.01
2022-08-07T09:47:19.957Z,41.80
2022-08-07T09:48:03.971Z,42.09
2022-08-07T09:50:54.398Z,40.85
2022-08-07T09:53:24.607Z,41.79
2022-08-07T09:56:37.527Z,40.96
2022-08-07T09:59:28.132Z,40.43
2022-08-07T10:02:24.232Z,39.63
2022-08-07T10:05:15.146Z,39.78
2022-08-07T10:08:01.166Z,39.58
2022-08-07T10:11:00.374Z,40.05
2022-08-07T10:14:00.355Z,38.78
2022-08-07T10:17:14.273Z,39.12
2022-08-07T10:19:56.404Z,37.61
2022-08-07T10:23:02.963Z,38.99
2022-08-07T10:25:51.824Z,38.49
2022-08-07T10:28:50.282Z,37.89
2022-08-07T10:31:41.996Z,39.40
2022-08-07T10:34:27.027Z,40.18
2022-08-07T10:37:26.468Z,37.49
2022-08-07T10:40:21.136Z,37.47
2022-08-07T10:43:06.702Z,38.83
2022-08-07T10:45:44.113Z,39.15
2022-08-07T10:48:34.923Z,40.06
2022-08-07T10:51:07.449Z,40.53
2022-08-07T10:53:50.066Z,40.82
2022-08-07T10:56:46.561Z,39.13
2022-08-07T10:59:37.342Z,40.17
2022-08-07T11:02:34.103Z,40.27
2022-08-07T11:05:14.823Z,40.58
2022-08-07T11:08:23.008Z,40.12
2022-08-07T11:11:20.251Z,40.26
2022-08-07T11:14:45.537Z,39.71
2022-08-07T11:16:54.765Z,38.62
2022-08-07T11:19:36.004Z,37.79
2022-08-07T11:22:11.273Z,38.26
2022-08-07T11:24:57.149Z,39.26
2022-08-07T11:28:02.888Z,40.03
2022-08-07T11:30:55.769Z,37.87
2022-08-07T11:33:59.242Z,38.78
2022-08-07T11:36:57.214Z,37.87
2022-08-07T11:39:23.983Z,38.47
2022-08-07T11:42:06.548Z,37.82
2022-08-07T11:44:52.470Z,37.46
2022-08-07T11:47:59.545Z,38.17
2022-08-07T11:50:58.348Z,37.89
2022-08-07T11:54:01.382Z,37.92
2022-08-07T11:56:29.021Z,36.93
2022-08-07T12:00:07.543Z,37.09
2022-08-07T12:02:52.483Z,37.31
2022-08-07T12:05:48.870Z,36.63
2022-08-07T12:08:34.797Z,35.43
2022-08-07T12:11:22.554Z,35.90
2022-08-07T12:14:05.441Z,33.98
2022-08-07T12:16:45.405Z,34.10
2022-08-07T12:20:02.730Z,34.15
2022-08-07T12:22:56.340Z,34.16
2022-08-07T12:26:06.139Z,33.46
2022-08-07T12:28:59.094Z,33.17
2022-08-07T12:32:03.904Z,31.79
2022-08-07T12:34:36.089Z,33.29
2022-08-07T12:37:08.162Z,31.98
2022-08-07T12:39:50.922Z,31.49
2022-08-07T12:42:27.989Z,33.65
2022-08-07T12:44:59.029Z,32.41
2022-08-07T12:47:37.747Z,32.07
2022-08-07T12:50:34.480Z,31.30
